sensor_id;sensor_type;location;lat;lon;timestamp;pressure;altitude;pressure_sealevel;temperature;humidity
17764;BME280;22245;52.832;13.816;2023-03-18T00:02:15;100949.06;;;8.71;52.90
17764;BME280;22245;52.832;13.816;2023-03-18T00:05:37;100941.13;;;8.71;52.79
17764;BME280;22245;52.832;13.816;2023-03-18T00:09:00;100945.50;;;8.72;52.38
17764;BME280;22245;52.832;13.816;2023-03-18T00:12:23;100944.00;;;8.68;52.91
17764;BME280;22245;52.832;13.816;2023-03-18T00:15:45;100948.56;;;8.66;52.50
17764;BME280;22245;52.832;13.816;2023-03-18T00:19:07;100944.34;;;8.63;53.19
17764;BME280;22245;52.832;13.816;2023-03-18T00:22:28;100947.84;;;8.64;53.56
17764;BME280;22245;52.832;13.816;2023-03-18T00:25:52;100952.41;;;8.62;52.84
17764;BME280;22245;52.832;13.816;2023-03-18T00:29:15;100954.97;;;8.63;53.07
17764;BME280;22245;52.832;13.816;2023-03-18T00:32:37;100950.50;;;8.64;53.49
17764;BME280;22245;52.832;13.816;2023-03-18T00:35:59;100945.09;;;8.65;54.48
17764;BME280;22245;52.832;13.816;2023-03-18T00:39:22;100945.19;;;8.64;53.52
17764;BME280;22245;52.832;13.816;2023-03-18T00:42:47;100945.41;;;8.61;53.73
17764;BME280;22245;52.832;13.816;2023-03-18T00:46:20;100943.72;;;8.60;53.78
17764;BME280;22245;52.832;13.816;2023-03-18T00:49:43;100938.53;;;8.58;53.51
17764;BME280;22245;52.832;13.816;2023-03-18T00:53:04;100932.50;;;8.56;53.87
17764;BME280;22245;52.832;13.816;2023-03-18T00:56:28;100929.94;;;8.54;54.02
17764;BME280;22245;52.832;13.816;2023-03-18T00:59:50;100922.13;;;8.53;54.41
17764;BME280;22245;52.832;13.816;2023-03-18T01:03:13;100920.28;;;8.53;54.47
17764;BME280;22245;52.832;13.816;2023-03-18T01:06:36;100914.25;;;8.51;54.84
17764;BME280;22245;52.832;13.816;2023-03-18T01:09:57;100908.94;;;8.51;54.71
17764;BME280;22245;52.832;13.816;2023-03-18T01:13:19;100913.38;;;8.51;54.98
17764;BME280;22245;52.832;13.816;2023-03-18T01:16:43;100923.16;;;8.50;54.70
17764;BME280;22245;52.832;13.816;2023-03-18T01:20:09;100913.53;;;8.49;54.87
17764;BME280;22245;52.832;13.816;2023-03-18T01:23:32;100917.88;;;8.50;54.33
17764;BME280;22245;52.832;13.816;2023-03-18T01:26:54;100924.13;;;8.49;54.60
17764;BME280;22245;52.832;13.816;2023-03-18T01:30:17;100916.25;;;8.48;54.73
17764;BME280;22245;52.832;13.816;2023-03-18T01:33:39;100915.41;;;8.47;55.01
17764;BME280;22245;52.832;13.816;2023-03-18T01:37:03;100916.59;;;8.43;54.52
17764;BME280;22245;52.832;13.816;2023-03-18T01:40:29;100915.13;;;8.39;55.91
17764;BME280;22245;52.832;13.816;2023-03-18T01:43:52;100910.78;;;8.38;54.85
17764;BME280;22245;52.832;13.816;2023-03-18T01:47:15;100913.44;;;8.38;54.62
17764;BME280;22245;52.832;13.816;2023-03-18T01:50:46;100918.97;;;8.35;54.39
17764;BME280;22245;52.832;13.816;2023-03-18T01:54:13;100905.06;;;8.31;54.58
17764;BME280;22245;52.832;13.816;2023-03-18T01:57:36;100897.09;;;8.31;54.67
17764;BME280;22245;52.832;13.816;2023-03-18T02:01:01;100899.84;;;8.30;53.86
17764;BME280;22245;52.832;13.816;2023-03-18T02:04:27;100899.03;;;8.29;54.44
17764;BME280;22245;52.832;13.816;2023-03-18T02:07:50;100899.13;;;8.28;54.15
17764;BME280;22245;52.832;13.816;2023-03-18T02:11:14;100898.28;;;8.27;54.35
17764;BME280;22245;52.832;13.816;2023-03-18T02:14:36;100910.81;;;8.25;54.63
17764;BME280;22245;52.832;13.816;2023-03-18T02:18:02;100894.28;;;8.21;54.31
17764;BME280;22245;52.832;13.816;2023-03-18T02:21:39;100900.75;;;8.17;53.95
17764;BME280;22245;52.832;13.816;2023-03-18T02:25:15;100897.28;;;8.17;54.88
17764;BME280;22245;52.832;13.816;2023-03-18T02:28:41;100897.38;;;8.15;54.24
17764;BME280;22245;52.832;13.816;2023-03-18T02:32:05;100894.00;;;8.13;54.38
17764;BME280;22245;52.832;13.816;2023-03-18T02:35:28;100894.09;;;8.11;54.23
17764;BME280;22245;52.832;13.816;2023-03-18T02:38:53;100892.53;;;8.09;54.55
17764;BME280;22245;52.832;13.816;2023-03-18T02:42:27;100898.28;;;8.03;54.42
17764;BME280;22245;52.832;13.816;2023-03-18T02:46:11;100906.47;;;8.00;54.91
17764;BME280;22245;52.832;13.816;2023-03-18T02:49:35;100905.72;;;7.97;54.30
17764;BME280;22245;52.832;13.816;2023-03-18T02:52:58;100904.03;;;7.96;54.83
17764;BME280;22245;52.832;13.816;2023-03-18T02:56:20;100889.69;;;7.99;55.04
17764;BME280;22245;52.832;13.816;2023-03-18T02:59:42;100882.47;;;8.01;54.77
17764;BME280;22245;52.832;13.816;2023-03-18T03:03:06;100892.97;;;8.03;53.79
17764;BME280;22245;52.832;13.816;2023-03-18T03:06:28;100888.28;;;8.06;54.17
17764;BME280;22245;52.832;13.816;2023-03-18T03:09:50;100888.91;;;8.10;53.97
17764;BME280;22245;52.832;13.816;2023-03-18T03:13:12;100896.66;;;8.13;52.82
17764;BME280;22245;52.832;13.816;2023-03-18T03:16:35;100878.81;;;8.15;51.00
17764;BME280;22245;52.832;13.816;2023-03-18T03:19:58;100881.75;;;8.23;51.52
17764;BME280;22245;52.832;13.816;2023-03-18T03:23:20;100889.47;;;8.26;51.78
17764;BME280;22245;52.832;13.816;2023-03-18T03:26:41;100892.84;;;8.29;52.22
17764;BME280;22245;52.832;13.816;2023-03-18T03:30:07;100892.03;;;8.28;52.43
17764;BME280;22245;52.832;13.816;2023-03-18T03:33:29;100892.63;;;8.32;52.37
17764;BME280;22245;52.832;13.816;2023-03-18T03:36:52;100902.50;;;8.30;52.44
17764;BME280;22245;52.832;13.816;2023-03-18T03:40:17;100892.63;;;8.32;52.67
17764;BME280;22245;52.832;13.816;2023-03-18T03:43:39;100910.47;;;8.30;52.72
17764;BME280;22245;52.832;13.816;2023-03-18T03:47:01;100907.00;;;8.29;52.03
17764;BME280;22245;52.832;13.816;2023-03-18T03:50:23;100906.13;;;8.29;52.79
17764;BME280;22245;52.832;13.816;2023-03-18T03:53:46;100904.44;;;8.28;53.00
17764;BME280;22245;52.832;13.816;2023-03-18T03:57:08;100904.44;;;8.28;53.37
17764;BME280;22245;52.832;13.816;2023-03-18T04:00:30;100910.69;;;8.26;53.17
17764;BME280;22245;52.832;13.816;2023-03-18T04:03:52;100912.63;;;8.24;53.32
17764;BME280;22245;52.832;13.816;2023-03-18T04:07:14;100913.59;;;8.23;52.28
17764;BME280;22245;52.832;13.816;2023-03-18T04:10:37;100909.22;;;8.22;52.69
17764;BME280;22245;52.832;13.816;2023-03-18T04:14:02;100917.09;;;8.24;53.42
17764;BME280;22245;52.832;13.816;2023-03-18T04:17:23;100927.81;;;8.22;53.59
17764;BME280;22245;52.832;13.816;2023-03-18T04:20:45;100918.38;;;8.18;53.78
17764;BME280;22245;52.832;13.816;2023-03-18T04:24:15;100919.97;;;8.21;53.95
17764;BME280;22245;52.832;13.816;2023-03-18T04:27:39;100913.94;;;8.19;52.81
17764;BME280;22245;52.832;13.816;2023-03-18T04:31:04;100920.81;;;8.21;52.42
17764;BME280;22245;52.832;13.816;2023-03-18T04:34:26;100922.50;;;8.22;52.50
17764;BME280;22245;52.832;13.816;2023-03-18T04:37:48;100918.16;;;8.21;52.90
17764;BME280;22245;52.832;13.816;2023-03-18T04:41:10;100919.84;;;8.22;53.14
17764;BME280;22245;52.832;13.816;2023-03-18T04:44:33;100923.59;;;8.20;53.62
17764;BME280;22245;52.832;13.816;2023-03-18T04:47:55;100936.00;;;8.19;53.95
17764;BME280;22245;52.832;13.816;2023-03-18T04:51:19;100947.03;;;8.13;53.78
17764;BME280;22245;52.832;13.816;2023-03-18T04:54:40;100937.63;;;8.09;54.69
17764;BME280;22245;52.832;13.816;2023-03-18T04:58:02;100939.75;;;8.04;54.70
17764;BME280;22245;52.832;13.816;2023-03-18T05:01:31;100946.34;;;7.98;54.92
17764;BME280;22245;52.832;13.816;2023-03-18T05:04:54;100943.03;;;7.94;55.53
17764;BME280;22245;52.832;13.816;2023-03-18T05:08:16;100942.53;;;7.89;55.29
17764;BME280;22245;52.832;13.816;2023-03-18T05:11:39;100939.25;;;7.86;55.59
17764;BME280;22245;52.832;13.816;2023-03-18T05:15:11;100943.31;;;7.78;55.65
17764;BME280;22245;52.832;13.816;2023-03-18T05:18:40;100937.56;;;7.72;55.41
17764;BME280;22245;52.832;13.816;2023-03-18T05:22:02;100932.38;;;7.70;55.76
17764;BME280;22245;52.832;13.816;2023-03-18T05:25:24;100943.09;;;7.68;56.40
17764;BME280;22245;52.832;13.816;2023-03-18T05:28:46;100945.84;;;7.67;56.20
17764;BME280;22245;52.832;13.816;2023-03-18T05:32:30;100941.72;;;7.63;55.79
17764;BME280;22245;52.832;13.816;2023-03-18T05:35:57;100938.44;;;7.59;56.71
17764;BME280;22245;52.832;13.816;2023-03-18T05:39:24;100937.06;;;7.53;56.46
17764;BME280;22245;52.832;13.816;2023-03-18T05:42:46;100940.97;;;7.48;56.79
17764;BME280;22245;52.832;13.816;2023-03-18T05:46:24;100954.34;;;7.46;57.02
17764;BME280;22245;52.832;13.816;2023-03-18T05:50:00;100945.00;;;7.41;57.09
17764;BME280;22245;52.832;13.816;2023-03-18T05:53:26;100952.31;;;7.37;57.39
17764;BME280;22245;52.832;13.816;2023-03-18T05:56:58;100942.13;;;7.31;57.37
17764;BME280;22245;52.832;13.816;2023-03-18T06:00:20;100940.56;;;7.28;57.58
17764;BME280;22245;52.832;13.816;2023-03-18T06:03:44;100945.19;;;7.24;57.67
17764;BME280;22245;52.832;13.816;2023-03-18T06:07:06;100950.72;;;7.21;57.42
17764;BME280;22245;52.832;13.816;2023-03-18T06:10:29;100953.47;;;7.20;57.72
17764;BME280;22245;52.832;13.816;2023-03-18T06:13:51;100955.47;;;7.16;57.66
17764;BME280;22245;52.832;13.816;2023-03-18T06:17:13;100952.09;;;7.14;58.19
17764;BME280;22245;52.832;13.816;2023-03-18T06:20:36;100963.63;;;7.13;58.07
17764;BME280;22245;52.832;13.816;2023-03-18T06:23:58;100959.38;;;7.10;57.97
17764;BME280;22245;52.832;13.816;2023-03-18T06:27:23;100961.94;;;7.12;58.12
17764;BME280;22245;52.832;13.816;2023-03-18T06:30:48;100962.75;;;7.13;58.02
17764;BME280;22245;52.832;13.816;2023-03-18T06:34:10;100958.34;;;7.13;58.11
17764;BME280;22245;52.832;13.816;2023-03-18T06:37:32;100962.47;;;7.17;57.99
17764;BME280;22245;52.832;13.816;2023-03-18T06:40:54;100962.34;;;7.19;57.93
17764;BME280;22245;52.832;13.816;2023-03-18T06:44:18;100947.31;;;7.19;57.81
17764;BME280;22245;52.832;13.816;2023-03-18T06:47:40;100960.47;;;7.21;58.24
17764;BME280;22245;52.832;13.816;2023-03-18T06:51:02;100959.59;;;7.20;58.36
17764;BME280;22245;52.832;13.816;2023-03-18T06:54:28;100966.59;;;7.21;58.32
17764;BME280;22245;52.832;13.816;2023-03-18T06:57:52;100970.88;;;7.24;58.58
17764;BME280;22245;52.832;13.816;2023-03-18T07:01:22;100975.81;;;7.29;58.60
17764;BME280;22245;52.832;13.816;2023-03-18T07:04:46;100985.47;;;7.30;58.36
17764;BME280;22245;52.832;13.816;2023-03-18T07:08:08;100972.13;;;7.31;57.96
17764;BME280;22245;52.832;13.816;2023-03-18T07:11:31;100975.53;;;7.33;58.28
17764;BME280;22245;52.832;13.816;2023-03-18T07:14:59;100984.31;;;7.34;58.60
17764;BME280;22245;52.832;13.816;2023-03-18T07:18:22;100985.19;;;7.34;58.80
17764;BME280;22245;52.832;13.816;2023-03-18T07:21:44;100986.66;;;7.38;58.04
17764;BME280;22245;52.832;13.816;2023-03-18T07:25:06;100984.88;;;7.39;58.66
17764;BME280;22245;52.832;13.816;2023-03-18T07:28:28;100997.03;;;7.42;58.34
17764;BME280;22245;52.832;13.816;2023-03-18T07:31:49;100989.00;;;7.43;57.22
17764;BME280;22245;52.832;13.816;2023-03-18T07:35:12;100996.63;;;7.48;56.63
17764;BME280;22245;52.832;13.816;2023-03-18T07:38:34;101004.88;;;7.56;57.67
17764;BME280;22245;52.832;13.816;2023-03-18T07:41:55;101000.97;;;7.62;56.57
17764;BME280;22245;52.832;13.816;2023-03-18T07:45:21;100996.22;;;7.67;54.82
17764;BME280;22245;52.832;13.816;2023-03-18T07:48:43;101001.81;;;7.75;53.74
17764;BME280;22245;52.832;13.816;2023-03-18T07:52:06;101000.34;;;7.84;52.90
17764;BME280;22245;52.832;13.816;2023-03-18T07:55:28;101003.31;;;7.92;52.77
17764;BME280;22245;52.832;13.816;2023-03-18T07:58:49;100993.75;;;8.03;52.64
17764;BME280;22245;52.832;13.816;2023-03-18T08:02:12;101014.09;;;8.15;52.48
17764;BME280;22245;52.832;13.816;2023-03-18T08:05:34;101023.00;;;8.27;53.20
17764;BME280;22245;52.832;13.816;2023-03-18T08:08:57;101020.34;;;8.40;52.29
17764;BME280;22245;52.832;13.816;2023-03-18T08:12:18;101013.28;;;8.52;51.84
17764;BME280;22245;52.832;13.816;2023-03-18T08:15:40;101009.88;;;8.63;51.74
17764;BME280;22245;52.832;13.816;2023-03-18T08:19:02;101009.09;;;8.74;51.00
17764;BME280;22245;52.832;13.816;2023-03-18T08:22:24;101016.28;;;8.85;51.50
17764;BME280;22245;52.832;13.816;2023-03-18T08:25:48;101017.56;;;9.03;51.03
17764;BME280;22245;52.832;13.816;2023-03-18T08:29:09;101021.69;;;9.07;50.88
17764;BME280;22245;52.832;13.816;2023-03-18T08:32:31;101034.34;;;9.28;51.27
17764;BME280;22245;52.832;13.816;2023-03-18T08:35:53;101050.06;;;9.43;49.83
17764;BME280;22245;52.832;13.816;2023-03-18T08:39:15;101043.59;;;9.58;49.81
17764;BME280;22245;52.832;13.816;2023-03-18T08:42:38;101042.78;;;9.69;50.69
17764;BME280;22245;52.832;13.816;2023-03-18T08:46:00;101036.16;;;9.86;50.00
17764;BME280;22245;52.832;13.816;2023-03-18T08:49:22;101036.19;;;9.97;50.41
17764;BME280;22245;52.832;13.816;2023-03-18T08:52:44;101031.56;;;10.11;49.87
17764;BME280;22245;52.832;13.816;2023-03-18T08:56:06;101034.59;;;10.18;50.19
17764;BME280;22245;52.832;13.816;2023-03-18T08:59:30;101040.63;;;10.31;49.51
17764;BME280;22245;52.832;13.816;2023-03-18T09:02:53;101044.91;;;10.45;49.79
17764;BME280;22245;52.832;13.816;2023-03-18T09:06:14;101052.75;;;10.58;49.57
17764;BME280;22245;52.832;13.816;2023-03-18T09:09:40;101048.75;;;10.64;50.36
17764;BME280;22245;52.832;13.816;2023-03-18T09:13:03;101048.47;;;10.78;50.25
17764;BME280;22245;52.832;13.816;2023-03-18T09:16:26;101049.03;;;10.93;49.39
17764;BME280;22245;52.832;13.816;2023-03-18T09:19:48;101049.84;;;11.05;49.23
17764;BME280;22245;52.832;13.816;2023-03-18T09:23:10;101037.44;;;11.15;50.16
17764;BME280;22245;52.832;13.816;2023-03-18T09:26:33;101047.34;;;11.25;49.24
17764;BME280;22245;52.832;13.816;2023-03-18T09:29:54;101060.41;;;11.28;49.62
17764;BME280;22245;52.832;13.816;2023-03-18T09:33:18;101063.44;;;11.35;48.80
17764;BME280;22245;52.832;13.816;2023-03-18T09:36:41;101066.44;;;11.41;48.82
17764;BME280;22245;52.832;13.816;2023-03-18T09:40:17;101069.16;;;11.51;49.47
17764;BME280;22245;52.832;13.816;2023-03-18T09:43:52;101072.59;;;11.63;49.06
17764;BME280;22245;52.832;13.816;2023-03-18T09:47:41;101066.25;;;11.76;49.53
17764;BME280;22245;52.832;13.816;2023-03-18T09:51:11;101068.84;;;11.87;48.55
17764;BME280;22245;52.832;13.816;2023-03-18T09:54:40;101063.56;;;11.97;48.51
17764;BME280;22245;52.832;13.816;2023-03-18T09:58:07;101057.56;;;12.05;48.74
17764;BME280;22245;52.832;13.816;2023-03-18T10:01:35;101068.47;;;12.13;48.81
17764;BME280;22245;52.832;13.816;2023-03-18T10:05:00;101064.13;;;12.22;49.68
17764;BME280;22245;52.832;13.816;2023-03-18T10:08:37;101066.84;;;12.32;49.14
17764;BME280;22245;52.832;13.816;2023-03-18T10:12:06;101066.59;;;12.44;48.41
17764;BME280;22245;52.832;13.816;2023-03-18T10:16:12;101071.84;;;12.56;49.22
17764;BME280;22245;52.832;13.816;2023-03-18T10:19:18;101056.97;;;12.73;49.25
17764;BME280;22245;52.832;13.816;2023-03-18T10:22:51;101057.41;;;12.78;48.45
17764;BME280;22245;52.832;13.816;2023-03-18T10:26:20;101053.50;;;12.92;48.16
17764;BME280;22245;52.832;13.816;2023-03-18T10:29:46;101049.97;;;13.01;48.79
17764;BME280;22245;52.832;13.816;2023-03-18T10:33:14;101049.13;;;13.01;48.67
17764;BME280;22245;52.832;13.816;2023-03-18T10:36:45;101048.28;;;13.10;48.57
17764;BME280;22245;52.832;13.816;2023-03-18T10:40:12;101053.50;;;13.22;48.60
17764;BME280;22245;52.832;13.816;2023-03-18T10:43:36;101042.97;;;13.30;49.03
17764;BME280;22245;52.832;13.816;2023-03-18T10:47:02;101048.88;;;13.43;49.88
17764;BME280;22245;52.832;13.816;2023-03-18T10:50:30;101048.31;;;13.59;49.37
17764;BME280;22245;52.832;13.816;2023-03-18T10:53:56;101046.03;;;13.74;48.81
17764;BME280;22245;52.832;13.816;2023-03-18T10:57:20;101042.47;;;13.84;48.92
17764;BME280;22245;52.832;13.816;2023-03-18T11:00:43;101046.81;;;13.95;49.20
17764;BME280;22245;52.832;13.816;2023-03-18T11:04:08;101039.03;;;14.01;49.26
17764;BME280;22245;52.832;13.816;2023-03-18T11:07:32;101039.97;;;14.10;49.01
17764;BME280;22245;52.832;13.816;2023-03-18T11:10:54;101037.56;;;14.17;48.13
17764;BME280;22245;52.832;13.816;2023-03-18T11:14:18;101048.47;;;14.06;48.85
17764;BME280;22245;52.832;13.816;2023-03-18T11:17:47;101046.59;;;14.16;48.60
17764;BME280;22245;52.832;13.816;2023-03-18T11:21:12;101052.06;;;14.24;48.73
17764;BME280;22245;52.832;13.816;2023-03-18T11:24:36;101048.47;;;14.33;49.27
17764;BME280;22245;52.832;13.816;2023-03-18T11:28:03;101045.63;;;14.45;49.10
17764;BME280;22245;52.832;13.816;2023-03-18T11:31:25;101040.06;;;14.56;49.35
17764;BME280;22245;52.832;13.816;2023-03-18T11:34:53;101036.16;;;14.69;48.57
17764;BME280;22245;52.832;13.816;2023-03-18T11:38:18;101024.28;;;14.81;50.03
17764;BME280;22245;52.832;13.816;2023-03-18T11:41:40;101038.75;;;14.88;49.38
17764;BME280;22245;52.832;13.816;2023-03-18T11:45:16;101040.19;;;15.01;49.21
17764;BME280;22245;52.832;13.816;2023-03-18T11:48:42;101030.09;;;14.95;48.89
17764;BME280;22245;52.832;13.816;2023-03-18T11:52:24;101032.47;;;14.80;49.63
17764;BME280;22245;52.832;13.816;2023-03-18T11:55:51;101038.88;;;14.87;48.76
17764;BME280;22245;52.832;13.816;2023-03-18T11:59:45;101033.91;;;14.92;49.75
17764;BME280;22245;52.832;13.816;2023-03-18T12:07:20;101044.81;;;15.27;50.05
17764;BME280;22245;52.832;13.816;2023-03-18T12:10:50;101039.88;;;15.40;49.20
17764;BME280;22245;52.832;13.816;2023-03-18T12:14:20;101032.06;;;15.47;49.71
17764;BME280;22245;52.832;13.816;2023-03-18T12:17:51;101039.69;;;15.60;48.80
17764;BME280;22245;52.832;13.816;2023-03-18T12:21:34;101039.44;;;15.71;48.81
17764;BME280;22245;52.832;13.816;2023-03-18T12:25:21;101035.47;;;15.84;48.46
17764;BME280;22245;52.832;13.816;2023-03-18T12:29:07;101036.25;;;15.94;48.41
17764;BME280;22245;52.832;13.816;2023-03-18T12:32:37;101041.50;;;16.04;48.83
17764;BME280;22245;52.832;13.816;2023-03-18T12:36:07;101040.81;;;16.02;48.81
17764;BME280;22245;52.832;13.816;2023-03-18T12:39:48;101036.66;;;16.08;48.07
17764;BME280;22245;52.832;13.816;2023-03-18T12:43:34;101037.88;;;16.13;48.38
17764;BME280;22245;52.832;13.816;2023-03-18T12:47:02;101045.09;;;16.21;48.51
17764;BME280;22245;52.832;13.816;2023-03-18T12:50:32;101035.38;;;16.28;48.38
17764;BME280;22245;52.832;13.816;2023-03-18T12:53:57;101037.13;;;16.38;48.80
17764;BME280;22245;52.832;13.816;2023-03-18T12:57:35;101031.78;;;16.46;48.17
17764;BME280;22245;52.832;13.816;2023-03-18T13:01:03;101029.97;;;16.55;47.56
17764;BME280;22245;52.832;13.816;2023-03-18T13:04:32;101038.38;;;16.60;47.95
17764;BME280;22245;52.832;13.816;2023-03-18T13:08:13;101024.41;;;16.64;48.25
17764;BME280;22245;52.832;13.816;2023-03-18T13:11:58;101028.97;;;16.72;47.41
17764;BME280;22245;52.832;13.816;2023-03-18T13:15:27;101024.63;;;16.79;47.41
17764;BME280;22245;52.832;13.816;2023-03-18T13:18:55;101031.88;;;16.87;47.28
17764;BME280;22245;52.832;13.816;2023-03-18T13:22:35;101024.16;;;16.92;46.94
17764;BME280;22245;52.832;13.816;2023-03-18T13:26:11;101026.34;;;16.97;46.78
17764;BME280;22245;52.832;13.816;2023-03-18T13:29:40;101018.13;;;16.99;46.25
17764;BME280;22245;52.832;13.816;2023-03-18T13:33:20;101019.66;;;17.01;46.05
17764;BME280;22245;52.832;13.816;2023-03-18T13:36:59;101025.72;;;17.03;46.34
17764;BME280;22245;52.832;13.816;2023-03-18T13:40:48;101025.56;;;17.05;46.33
17764;BME280;22245;52.832;13.816;2023-03-18T13:44:16;101032.09;;;17.11;45.48
17764;BME280;22245;52.832;13.816;2023-03-18T13:47:42;101015.78;;;17.12;46.24
17764;BME280;22245;52.832;13.816;2023-03-18T13:51:17;101021.19;;;17.12;46.36
17764;BME280;22245;52.832;13.816;2023-03-18T13:54:41;101016.13;;;17.17;46.43
17764;BME280;22245;52.832;13.816;2023-03-18T13:58:21;101019.97;;;17.23;46.16
17764;BME280;22245;52.832;13.816;2023-03-18T14:01:47;101017.66;;;17.28;46.23
17764;BME280;22245;52.832;13.816;2023-03-18T14:05:37;101016.31;;;17.32;46.10
17764;BME280;22245;52.832;13.816;2023-03-18T14:09:21;101020.34;;;17.36;46.09
17764;BME280;22245;52.832;13.816;2023-03-18T14:12:45;101014.25;;;17.43;46.30
17764;BME280;22245;52.832;13.816;2023-03-18T14:16:08;101019.97;;;17.48;46.10
17764;BME280;22245;52.832;13.816;2023-03-18T14:19:30;101016.47;;;17.47;45.88
17764;BME280;22245;52.832;13.816;2023-03-18T14:22:53;101013.91;;;17.46;45.45
17764;BME280;22245;52.832;13.816;2023-03-18T14:26:18;101018.78;;;17.42;46.04
17764;BME280;22245;52.832;13.816;2023-03-18T14:29:44;101024.88;;;17.44;46.17
17764;BME280;22245;52.832;13.816;2023-03-18T14:33:30;101021.50;;;17.50;45.62
17764;BME280;22245;52.832;13.816;2023-03-18T14:37:23;101017.44;;;17.55;46.42
17764;BME280;22245;52.832;13.816;2023-03-18T14:40:47;101023.50;;;17.57;46.03
17764;BME280;22245;52.832;13.816;2023-03-18T14:44:19;101019.97;;;17.56;46.21
17764;BME280;22245;52.832;13.816;2023-03-18T14:47:46;101022.16;;;17.61;46.17
17764;BME280;22245;52.832;13.816;2023-03-18T14:51:12;101016.94;;;17.68;46.49
17764;BME280;22245;52.832;13.816;2023-03-18T14:54:40;101010.53;;;17.69;45.93
17764;BME280;22245;52.832;13.816;2023-03-18T14:58:05;101004.63;;;17.65;46.13
17764;BME280;22245;52.832;13.816;2023-03-18T15:01:33;101016.06;;;17.67;46.22
17764;BME280;22245;52.832;13.816;2023-03-18T15:04:58;101016.41;;;17.72;46.51
17764;BME280;22245;52.832;13.816;2023-03-18T15:08:24;101011.34;;;17.77;46.21
17764;BME280;22245;52.832;13.816;2023-03-18T15:12:17;101009.31;;;17.79;46.21
17764;BME280;22245;52.832;13.816;2023-03-18T15:15:40;101009.81;;;17.83;46.18
17764;BME280;22245;52.832;13.816;2023-03-18T15:19:02;101016.06;;;17.84;47.10
17764;BME280;22245;52.832;13.816;2023-03-18T15:22:28;101012.34;;;17.85;46.56
17764;BME280;22245;52.832;13.816;2023-03-18T15:25:50;101017.06;;;17.83;46.88
17764;BME280;22245;52.832;13.816;2023-03-18T15:29:23;101021.75;;;17.89;47.08
17764;BME280;22245;52.832;13.816;2023-03-18T15:32:47;101018.19;;;17.97;46.83
17764;BME280;22245;52.832;13.816;2023-03-18T15:36:13;101016.34;;;18.05;46.63
17764;BME280;22245;52.832;13.816;2023-03-18T15:39:38;101014.84;;;18.43;45.78
17764;BME280;22245;52.832;13.816;2023-03-18T15:43:04;101006.97;;;18.64;44.93
17764;BME280;22245;52.832;13.816;2023-03-18T15:46:33;101015.22;;;18.63;45.38
17764;BME280;22245;52.832;13.816;2023-03-18T15:49:56;101011.56;;;18.56;45.35
17764;BME280;22245;52.832;13.816;2023-03-18T15:53:20;101018.03;;;18.46;45.56
17764;BME280;22245;52.832;13.816;2023-03-18T15:56:45;101023.28;;;18.40;46.25
17764;BME280;22245;52.832;13.816;2023-03-18T16:00:09;101019.63;;;18.32;46.58
17764;BME280;22245;52.832;13.816;2023-03-18T16:03:33;101026.06;;;18.23;46.61
17764;BME280;22245;52.832;13.816;2023-03-18T16:06:55;101031.16;;;18.10;47.04
17764;BME280;22245;52.832;13.816;2023-03-18T16:10:18;101037.91;;;17.97;46.80
17764;BME280;22245;52.832;13.816;2023-03-18T16:13:43;101033.56;;;17.88;47.66
17764;BME280;22245;52.832;13.816;2023-03-18T16:17:05;101044.50;;;17.78;47.37
17764;BME280;22245;52.832;13.816;2023-03-18T16:20:28;101046.38;;;17.69;47.96
17764;BME280;22245;52.832;13.816;2023-03-18T16:23:50;101049.91;;;17.61;48.17
17764;BME280;22245;52.832;13.816;2023-03-18T16:27:27;101059.00;;;17.52;48.95
17764;BME280;22245;52.832;13.816;2023-03-18T16:30:51;101061.88;;;17.42;49.01
17764;BME280;22245;52.832;13.816;2023-03-18T16:34:15;101061.88;;;17.34;49.41
17764;BME280;22245;52.832;13.816;2023-03-18T16:37:41;101065.44;;;17.26;49.89
17764;BME280;22245;52.832;13.816;2023-03-18T16:41:03;101070.97;;;17.16;50.32
17764;BME280;22245;52.832;13.816;2023-03-18T16:44:26;101076.16;;;17.10;50.51
17764;BME280;22245;52.832;13.816;2023-03-18T16:47:50;101079.84;;;17.00;50.85
17764;BME280;22245;52.832;13.816;2023-03-18T16:51:12;101078.13;;;16.91;51.68
17764;BME280;22245;52.832;13.816;2023-03-18T16:54:34;101072.53;;;16.76;51.83
17764;BME280;22245;52.832;13.816;2023-03-18T16:57:58;101076.69;;;16.62;52.40
17764;BME280;22245;52.832;13.816;2023-03-18T17:01:20;101076.13;;;16.50;52.74
17764;BME280;22245;52.832;13.816;2023-03-18T17:04:45;101082.81;;;16.38;53.53
17764;BME280;22245;52.832;13.816;2023-03-18T17:08:07;101084.75;;;16.27;53.75
17764;BME280;22245;52.832;13.816;2023-03-18T17:11:30;101095.66;;;16.17;54.56
17764;BME280;22245;52.832;13.816;2023-03-18T17:14:54;101093.91;;;16.08;54.80
17764;BME280;22245;52.832;13.816;2023-03-18T17:18:18;101100.09;;;16.00;54.45
17764;BME280;22245;52.832;13.816;2023-03-18T17:21:41;101104.41;;;15.93;54.87
17764;BME280;22245;52.832;13.816;2023-03-18T17:25:03;101111.34;;;15.86;55.90
17764;BME280;22245;52.832;13.816;2023-03-18T17:28:31;101113.97;;;15.77;56.40
17764;BME280;22245;52.832;13.816;2023-03-18T17:31:53;101116.31;;;15.72;55.98
17764;BME280;22245;52.832;13.816;2023-03-18T17:35:18;101122.97;;;15.68;55.37
17764;BME280;22245;52.832;13.816;2023-03-18T17:38:41;101128.50;;;15.67;55.07
17764;BME280;22245;52.832;13.816;2023-03-18T17:42:03;101126.81;;;15.66;56.25
17764;BME280;22245;52.832;13.816;2023-03-18T17:45:27;101130.97;;;15.60;55.56
17764;BME280;22245;52.832;13.816;2023-03-18T17:48:51;101132.13;;;15.57;55.56
17764;BME280;22245;52.832;13.816;2023-03-18T17:52:16;101127.38;;;15.51;54.95
17764;BME280;22245;52.832;13.816;2023-03-18T17:55:41;101133.19;;;15.46;54.93